Terminal Aerodrome Forecast
Issued by NWS Charleston, WV

Current Version | Previous Version | Graphics & Text | Print | Product List | Glossary On
Versions: 1 2 3 4 5 6 7 8 9 10 11 12 13 14 15 16 17 18 19 20 21 22 23 24 25 26 27
000
FTUS41 KRLX 231200 AAB
TAFPKB
TAF AMD
KPKB 231259Z 2313/2412 32004KT P6SM SCT005 BKN035
      TEMPO 2313/2315 BKN005
     FM231600 31005KT P6SM SCT035
     FM240200 00000KT P6SM SCT200=

USA.gov is the U.S. government's official web portal to all federal, state and local government web resources and services.